Time;durP1;ratioP1;P1;durP2;ratioP2;P2;SDS_P1;SDS_P2;PMS_P1;PMS_P2;Temp;Humidity;BMP_temperature;BMP_pressure;BME280_temperature;BME280_humidity;BME280_pressure;Samples;Min_cycle;Max_cycle;Signal;HPM_P1;HPM_P2
2022/03/30 01:34:14;;;;;;;;;;;9.40;3.70;;;;;;5151677;27;19912;-71
2022/03/30 01:36:39;;;;;;;;;;;9.30;4.00;;;;;;5151422;27;20001;-71
2022/03/30 01:39:05;;;;;;;;;;;9.30;5.30;;;;;;5150555;27;20265;-71
2022/03/30 01:41:31;;;;;;;;;;;9.30;6.00;;;;;;5151393;27;19908;-71
2022/03/30 01:43:57;;;;;;;;;;;9.20;6.80;;;;;;5150747;27;19918;-71
2022/03/30 01:46:23;;;;;;;;;;;9.10;7.30;;;;;;5151238;27;19914;-71
2022/03/30 01:48:49;;;;;;;;;;;;;;;;;;5150800;27;19907;-76
2022/03/30 01:51:15;;;;;;;;;;;9.20;9.20;;;;;;5150903;27;19967;-71
2022/03/30 01:53:40;;;;;;;;;;;9.10;9.60;;;;;;5150969;27;19954;-71
2022/03/30 01:56:06;;;;;;;;;;;9.30;11.00;;;;;;5150318;27;20356;-71
2022/03/30 01:58:32;;;;;;;;;;;9.20;11.20;;;;;;5151035;27;19908;-71
2022/03/30 02:00:57;;;;;;;;;;;9.00;10.30;;;;;;5150150;27;19918;-71
2022/03/30 02:03:23;;;;;;;;;;;8.90;11.10;;;;;;5150755;27;19912;-71
2022/03/30 02:05:49;;;;;;;;;;;;;;;;;;5150660;27;19915;-74
2022/03/30 02:08:14;;;;;;;;;;;8.80;12.50;;;;;;5150674;27;19907;-71
2022/03/30 02:10:40;;;;;;;;;;;8.90;11.90;;;;;;5150523;27;19954;-71
2022/03/30 02:13:05;;;;;;;;;;;8.80;10.20;;;;;;5149843;27;19912;-71
2022/03/30 02:15:31;;;;;;;;;;;8.80;10.50;;;;;;5150659;27;19907;-71
2022/03/30 02:17:59;;;;;;;;;;;;;;;;;;5149881;27;19955;-71
2022/03/30 02:20:25;;;;;;;;;;;8.70;9.90;;;;;;5150696;27;19907;-71
2022/03/30 02:22:50;;;;;;;;;;;;;;;;;;5150193;27;19915;-75
2022/03/30 02:25:16;;;;;;;;;;;8.70;11.30;;;;;;5150208;27;19911;-71
2022/03/30 02:27:42;;;;;;;;;;;8.70;12.40;;;;;;5150485;27;20374;-71
2022/03/30 02:30:08;;;;;;;;;;;8.80;15.00;;;;;;5149599;27;19907;-70
2022/03/30 02:32:36;;;;;;;;;;;8.60;19.70;;;;;;5150013;27;20386;-70
2022/03/30 02:35:02;;;;;;;;;;;8.60;25.30;;;;;;5149451;27;19912;-70
2022/03/30 02:37:28;;;;;;;;;;;8.30;31.40;;;;;;5150291;27;19908;-70
2022/03/30 02:39:54;;;;;;;;;;;;;;;;;;5149328;27;19908;-76
2022/03/30 02:42:19;;;;;;;;;;;8.40;41.40;;;;;;5150180;27;19908;-70
2022/03/30 02:44:45;;;;;;;;;;;8.20;45.40;;;;;;5139403;27;19907;-70
2022/03/30 02:47:10;;;;;;;;;;;8.20;51.60;;;;;;5135566;27;19918;-70
2022/03/30 02:49:36;;;;;;;;;;;;;;;;;;5136474;27;19912;-70
2022/03/30 02:52:02;;;;;;;;;;;;;;;;;;5135375;27;20224;-70
2022/03/30 02:54:28;;;;;;;;;;;8.20;55.10;;;;;;5136027;27;19907;-70
2022/03/30 02:56:54;;;;;;;;;;;;;;;;;;5135538;27;20384;-75
2022/03/30 02:59:19;;;;;;;;;;;8.30;54.30;;;;;;5135863;27;20495;-70
2022/03/30 03:01:45;;;;;;;;;;;8.30;54.10;;;;;;5136168;27;20049;-70
2022/03/30 03:04:11;;;;;;;;;;;8.30;55.50;;;;;;5135154;27;20395;-71
2022/03/30 03:06:36;;;;;;;;;;;8.30;55.00;;;;;;5135824;27;19907;-70
2022/03/30 03:09:02;;;;;;;;;;;8.10;54.40;;;;;;5135038;27;19914;-71
2022/03/30 03:11:27;;;;;;;;;;;8.20;52.40;;;;;;5135595;27;20334;-71
2022/03/30 03:13:53;;;;;;;;;;;;;;;;;;5135385;27;19918;-75
2022/03/30 03:16:19;;;;;;;;;;;8.20;49.30;;;;;;5135311;27;19908;-71
2022/03/30 03:18:45;;;;;;;;;;;8.30;47.80;;;;;;5117170;27;19908;-71
2022/03/30 03:21:10;;;;;;;;;;;8.20;45.50;;;;;;5134867;27;19959;-71
2022/03/30 03:23:36;;;;;;;;;;;8.30;46.20;;;;;;5135554;27;19911;-71
2022/03/30 03:26:02;;;;;;;;;;;8.40;45.60;;;;;;5134724;27;19907;-72
2022/03/30 03:28:27;;;;;;;;;;;8.10;50.60;;;;;;5135439;27;19911;-71
2022/03/30 03:31:02;;;;;;;;;;;;;;;;;;5135223;27;19907;-75
2022/03/30 03:33:28;;;;;;;;;;;;;;;;;;5135253;27;19926;-71
2022/03/30 03:35:54;;;;;;;;;;;;;;;;;;5135051;27;20287;-76
2022/03/30 03:38:20;;;;;;;;;;;8.30;51.60;;;;;;5134861;27;19957;-71
2022/03/30 03:40:46;;;;;;;;;;;;;;;;;;5135064;27;20316;-71
2022/03/30 03:43:12;;;;;;;;;;;;;;;;;;5134429;27;19908;-71
2022/03/30 03:45:37;;;;;;;;;;;;;;;;;;5135133;27;19911;-71
2022/03/30 03:48:03;;;;;;;;;;;8.30;50.40;;;;;;5134482;27;19911;-71
2022/03/30 03:50:29;;;;;;;;;;;8.20;50.50;;;;;;5135288;27;20328;-71
2022/03/30 03:52:55;;;;;;;;;;;;;;;;;;5134715;27;19998;-75
2022/03/30 03:55:21;;;;;;;;;;;8.20;50.00;;;;;;5133531;27;19907;-71
2022/03/30 03:57:46;;;;;;;;;;;8.20;46.80;;;;;;5134906;27;20015;-71
2022/03/30 04:00:13;;;;;;;;;;;8.20;45.70;;;;;;5134061;27;19915;-71
2022/03/30 04:02:39;;;;;;;;;;;;;;;;;;5134902;27;20015;-71
2022/03/30 04:05:04;;;;;;;;;;;8.10;42.30;;;;;;5133923;27;19950;-71
2022/03/30 04:07:32;;;;;;;;;;;8.10;43.70;;;;;;5116570;27;19998;-71
2022/03/30 04:09:58;;;;;;;;;;;;;;;;;;5134227;27;20286;-75
2022/03/30 04:12:23;;;;;;;;;;;7.90;43.50;;;;;;5134281;27;19911;-71
2022/03/30 04:14:49;;;;;;;;;;;7.90;42.40;;;;;;5134529;27;19915;-71
2022/03/30 04:17:15;;;;;;;;;;;7.90;42.70;;;;;;5133932;27;19908;-71
2022/03/30 04:19:40;;;;;;;;;;;7.90;44.00;;;;;;5134463;27;20283;-71
2022/03/30 04:22:06;;;;;;;;;;;7.80;43.40;;;;;;5133663;27;20379;-72
2022/03/30 04:24:31;;;;;;;;;;;7.90;43.50;;;;;;5134360;27;19907;-71
2022/03/30 04:26:57;;;;;;;;;;;;;;;;;;5134025;27;19964;-75
2022/03/30 04:29:23;;;;;;;;;;;;;;;;;;5133760;27;20442;-71
2022/03/30 04:31:49;;;;;;;;;;;7.80;41.90;;;;;;5133779;27;20006;-71
2022/03/30 04:34:15;;;;;;;;;;;7.70;42.70;;;;;;5133722;27;19999;-71
2022/03/30 04:36:40;;;;;;;;;;;;;;;;;;5134131;27;19998;-71
2022/03/30 04:39:06;;;;;;;;;;;7.70;45.00;;;;;;5133219;27;20270;-71
2022/03/30 04:41:31;;;;;;;;;;;7.70;45.10;;;;;;5134141;27;19907;-71
2022/03/30 04:43:57;;;;;;;;;;;;;;;;;;5134080;27;19915;-75
2022/03/30 04:46:23;;;;;;;;;;;7.70;45.90;;;;;;5133429;27;19907;-71
2022/03/30 04:48:48;;;;;;;;;;;7.80;45.10;;;;;;5133934;27;20316;-71
2022/03/30 04:51:14;;;;;;;;;;;7.60;46.00;;;;;;5131747;27;19930;-71
2022/03/30 04:53:39;;;;;;;;;;;7.50;46.90;;;;;;5113184;28;19935;-71
2022/03/30 04:56:05;;;;;;;;;;;7.60;47.80;;;;;;5112426;28;19912;-71
2022/03/30 04:58:31;;;;;;;;;;;7.60;46.20;;;;;;5113194;28;19907;-70
2022/03/30 05:00:57;;;;;;;;;;;;;;;;;;5113384;28;19968;-71
2022/03/30 05:03:22;;;;;;;;;;;7.50;47.00;;;;;;5112204;28;19912;-71
2022/03/30 05:05:48;;;;;;;;;;;7.50;49.40;;;;;;5113079;28;19961;-71
2022/03/30 05:08:13;;;;;;;;;;;7.40;50.70;;;;;;5112088;28;19907;-71
2022/03/30 05:10:39;;;;;;;;;;;;;;;;;;5118051;27;19944;-71
2022/03/30 05:13:05;;;;;;;;;;;;;;;;;;5130272;27;19945;-71
2022/03/30 05:15:31;;;;;;;;;;;7.20;51.70;;;;;;5126798;27;19999;-71
2022/03/30 05:17:57;;;;;;;;;;;;;;;;;;5133723;27;20363;-71
2022/03/30 05:20:24;;;;;;;;;;;7.10;55.70;;;;;;5132616;27;20018;-71
2022/03/30 05:22:50;;;;;;;;;;;7.10;56.70;;;;;;5133420;27;19914;-71
2022/03/30 05:25:16;;;;;;;;;;;7.00;57.80;;;;;;5130300;27;19908;-71
2022/03/30 05:27:42;;;;;;;;;;;7.10;57.40;;;;;;5133348;27;19907;-71
2022/03/30 05:30:08;;;;;;;;;;;7.10;54.40;;;;;;5132754;28;19918;-71
2022/03/30 05:32:35;;;;;;;;;;;7.10;56.80;;;;;;5133070;28;19926;-71
2022/03/30 05:35:00;;;;;;;;;;;;;;;;;;5132318;28;19992;-72
2022/03/30 05:37:26;;;;;;;;;;;6.90;57.30;;;;;;5112486;28;19976;-71
2022/03/30 05:39:52;;;;;;;;;;;6.90;59.20;;;;;;5112737;28;19918;-71
2022/03/30 05:42:18;;;;;;;;;;;;;;;;;;5129573;28;19911;-70
2022/03/30 05:44:44;;;;;;;;;;;6.80;60.10;;;;;;5133166;28;19999;-69
2022/03/30 05:47:09;;;;;;;;;;;6.80;61.30;;;;;;5132437;28;20282;-71
2022/03/30 05:49:35;;;;;;;;;;;6.80;62.20;;;;;;5133525;28;19907;-72
2022/03/30 05:52:01;;;;;;;;;;;6.70;62.40;;;;;;5133004;28;19918;-72
2022/03/30 05:54:27;;;;;;;;;;;6.80;63.40;;;;;;5132446;28;20297;-70
2022/03/30 05:57:01;;;;;;;;;;;6.90;59.70;;;;;;5132999;28;19907;-73
2022/03/30 05:59:27;;;;;;;;;;;;;;;;;;5132388;28;19915;-71
2022/03/30 06:01:53;;;;;;;;;;;7.10;58.90;;;;;;5131252;28;19912;-72
2022/03/30 06:04:18;;;;;;;;;;;7.00;58.90;;;;;;5132248;28;19912;-70
2022/03/30 06:06:44;;;;;;;;;;;;;;;;;;5133049;28;19911;-71
2022/03/30 06:09:10;;;;;;;;;;;6.90;61.40;;;;;;5132393;28;19915;-71
2022/03/30 06:11:35;;;;;;;;;;;7.00;62.00;;;;;;5132765;28;19970;-71
2022/03/30 06:14:01;;;;;;;;;;;7.00;60.30;;;;;;5132736;28;19908;-71
2022/03/30 06:16:27;;;;;;;;;;;7.10;59.30;;;;;;5132107;28;19918;-71
2022/03/30 06:18:53;;;;;;;;;;;;;;;;;;5133864;27;20279;-70
2022/03/30 06:21:19;;;;;;;;;;;7.10;56.30;;;;;;5135808;27;19915;-71
2022/03/30 06:23:44;;;;;;;;;;;7.10;53.70;;;;;;5136785;27;19908;-71
2022/03/30 06:26:10;;;;;;;;;;;7.20;54.90;;;;;;5135880;27;19911;-71
2022/03/30 06:28:35;;;;;;;;;;;7.30;53.30;;;;;;5136754;27;19911;-72
2022/03/30 06:31:01;;;;;;;;;;;7.30;52.50;;;;;;5136367;27;19912;-70
2022/03/30 06:33:27;;;;;;;;;;;;;;;;;;5135477;27;19923;-72
2022/03/30 06:35:52;;;;;;;;;;;7.30;53.80;;;;;;5136504;27;19958;-71
2022/03/30 06:38:19;;;;;;;;;;;7.30;53.40;;;;;;5117312;27;19907;-72
2022/03/30 06:40:46;;;;;;;;;;;7.30;52.40;;;;;;5136570;27;19911;-71
2022/03/30 06:43:12;;;;;;;;;;;7.40;52.10;;;;;;5135356;27;19942;-70
2022/03/30 06:45:38;;;;;;;;;;;;;;;;;;5136148;27;19959;-71
2022/03/30 06:48:04;;;;;;;;;;;7.50;49.60;;;;;;5135902;27;20361;-70
2022/03/30 06:50:32;;;;;;;;;;;7.60;50.00;;;;;;5135566;27;20103;-70
2022/03/30 06:52:58;;;;;;;;;;;;;;;;;;5136106;27;20391;-70
2022/03/30 06:55:23;;;;;;;;;;;7.70;45.80;;;;;;5135362;27;19908;-70
2022/03/30 06:57:49;;;;;;;;;;;7.60;47.90;;;;;;5136033;27;19908;-70
2022/03/30 07:00:15;;;;;;;;;;;7.50;51.10;;;;;;5135484;27;20374;-70
2022/03/30 07:02:41;;;;;;;;;;;7.30;53.20;;;;;;5135921;27;19918;-70
2022/03/30 07:05:07;;;;;;;;;;;;;;;;;;5135953;27;19915;-71
2022/03/30 07:10:20;;;;;;;;;;;7.30;58.00;;;;;;5135424;27;19953;-70
2022/03/30 07:12:47;;;;;;;;;;;7.30;61.60;;;;;;5135844;27;20010;-70
2022/03/30 07:15:13;;;;;;;;;;;7.30;58.20;;;;;;5135044;27;19907;-70
2022/03/30 07:17:42;;;;;;;;;;;7.30;60.60;;;;;;5135662;27;19930;-70
2022/03/30 07:20:09;;;;;;;;;;;;;;;;;;5135645;27;19957;-74
2022/03/30 07:22:35;;;;;;;;;;;7.30;62.10;;;;;;5135231;27;19907;-70
2022/03/30 07:25:01;;;;;;;;;;;7.30;62.40;;;;;;5135450;27;20363;-70
2022/03/30 07:27:26;;;;;;;;;;;7.50;60.30;;;;;;5134751;27;19958;-70
2022/03/30 07:29:52;;;;;;;;;;;7.50;58.50;;;;;;5135388;27;20002;-70
2022/03/30 07:32:19;;;;;;;;;;;7.50;58.20;;;;;;5134280;27;19919;-70
2022/03/30 07:34:45;;;;;;;;;;;7.40;57.80;;;;;;5135469;27;19911;-70
2022/03/30 07:37:11;;;;;;;;;;;;;;;;;;5134985;27;19999;-75
2022/03/30 07:39:36;;;;;;;;;;;7.70;57.60;;;;;;5134971;27;19943;-69
2022/03/30 07:42:02;;;;;;;;;;;7.80;54.70;;;;;;5135243;27;20342;-70
2022/03/30 07:44:28;;;;;;;;;;;;;;;;;;5134725;27;19931;-70
2022/03/30 07:46:54;;;;;;;;;;;7.90;52.40;;;;;;5116774;27;19915;-70
2022/03/30 07:49:20;;;;;;;;;;;7.90;50.00;;;;;;5134273;27;19914;-70
2022/03/30 07:51:45;;;;;;;;;;;7.80;50.20;;;;;;5135194;27;19907;-69
2022/03/30 07:54:11;;;;;;;;;;;;;;;;;;5134848;27;19915;-75
2022/03/30 07:56:38;;;;;;;;;;;7.80;53.10;;;;;;5134477;27;20037;-69
2022/03/30 07:59:03;;;;;;;;;;;8.00;50.40;;;;;;5116464;27;20260;-69
2022/03/30 08:01:29;;;;;;;;;;;;;;;;;;5131502;27;19912;-69
2022/03/30 08:03:56;;;;;;;;;;;;;;;;;;5130622;27;19911;-68
2022/03/30 08:06:22;;;;;;;;;;;8.30;46.00;;;;;;5115116;28;19908;-68
2022/03/30 08:08:48;;;;;;;;;;;8.20;45.80;;;;;;5115890;28;19912;-68
2022/03/30 08:11:14;;;;;;;;;;;;;;;;;;5115143;28;19972;-70
2022/03/30 08:13:39;;;;;;;;;;;8.50;41.20;;;;;;5113991;28;19912;-69
2022/03/30 08:16:05;;;;;;;;;;;8.30;37.90;;;;;;5114294;28;19908;-68
2022/03/30 08:18:31;;;;;;;;;;;8.30;38.70;;;;;;5113249;28;19914;-69
2022/03/30 08:23:40;;;;;;;;;;;8.30;40.20;;;;;;5114336;28;19961;-69
2022/03/30 08:26:06;;;;;;;;;;;8.50;39.20;;;;;;5113909;28;20310;-69
2022/03/30 08:28:32;;;;;;;;;;;8.40;37.50;;;;;;5113218;28;20022;-68
2022/03/30 08:30:57;;;;;;;;;;;;;;;;;;5113717;28;20362;-71
2022/03/30 08:33:23;;;;;;;;;;;8.50;35.60;;;;;;5123815;27;19927;-70
2022/03/30 08:35:50;;;;;;;;;;;8.40;34.80;;;;;;5133148;27;19915;-69
2022/03/30 08:38:15;;;;;;;;;;;;;;;;;;5126454;27;19920;-67
2022/03/30 08:40:42;;;;;;;;;;;8.50;33.20;;;;;;5125442;27;19907;-66
2022/03/30 08:43:07;;;;;;;;;;;8.80;29.70;;;;;;5114854;28;19960;-68
2022/03/30 08:45:33;;;;;;;;;;;8.80;27.10;;;;;;5116897;27;20014;-70
2022/03/30 08:47:59;;;;;;;;;;;8.80;26.70;;;;;;5130171;27;19961;-69
2022/03/30 08:50:25;;;;;;;;;;;8.80;26.10;;;;;;5129955;27;19915;-70
2022/03/30 08:52:53;;;;;;;;;;;8.90;24.10;;;;;;5133912;27;20268;-70
2022/03/30 08:55:18;;;;;;;;;;;;;;;;;;5133311;27;19911;-74
2022/03/30 08:57:44;;;;;;;;;;;9.00;19.80;;;;;;5134028;27;19911;-70
2022/03/30 09:00:14;;;;;;;;;;;9.00;14.90;;;;;;5133677;27;20271;-70
2022/03/30 09:02:41;;;;;;;;;;;8.80;13.90;;;;;;5133385;27;19916;-70
2022/03/30 09:05:07;;;;;;;;;;;;;;;;;;5133757;27;19918;-71
2022/03/30 09:07:32;;;;;;;;;;;;;;;;;;5132471;27;19994;-71
2022/03/30 09:09:58;;;;;;;;;;;;;;;;;;5132436;27;19907;-72
2022/03/30 09:12:24;;;;;;;;;;;;;;;;;;5132202;27;19964;-72
2022/03/30 09:14:59;;;;;;;;;;;9.60;2.90;;;;;;5121534;27;19912;-70
2022/03/30 09:17:24;;;;;;;;;;;9.70;2.00;;;;;;5111834;28;19951;-71
2022/03/30 09:19:50;;;;;;;;;;;;;;;;;;5133142;27;19961;-71
2022/03/30 09:22:16;;;;;;;;;;;;;;;;;;5132936;27;20002;-71
2022/03/30 09:24:42;;;;;;;;;;;;;;;;;;5132318;27;20026;-71
2022/03/30 09:27:08;;;;;;;;;;;;;;;;;;5133073;27;19911;-71
2022/03/30 09:29:36;;;;;;;;;;;9.90;1.00;;;;;;5132366;27;19908;-70
2022/03/30 09:32:03;;;;;;;;;;;10.10;1.00;;;;;;5133069;27;19915;-70
2022/03/30 09:34:33;;;;;;;;;;;10.10;1.00;;;;;;5132141;28;19956;-70
2022/03/30 09:36:59;;;;;;;;;;;10.00;1.00;;;;;;5133089;28;20043;-69
2022/03/30 09:39:25;;;;;;;;;;;;;;;;;;5132631;28;20365;-70
2022/03/30 09:41:51;;;;;;;;;;;9.90;1.00;;;;;;5132997;28;19911;-68
2022/03/30 09:44:17;;;;;;;;;;;9.90;1.00;;;;;;5133270;28;19908;-70
2022/03/30 09:46:50;;;;;;;;;;;10.10;1.00;;;;;;5129549;28;19974;-70
2022/03/30 09:49:31;;;;;;;;;;;10.00;1.00;;;;;;5122270;28;20337;-70
2022/03/30 09:51:56;;;;;;;;;;;10.00;1.00;;;;;;5122279;28;20364;-70
2022/03/30 09:54:22;;;;;;;;;;;;;;;;;;5123014;27;19919;-74
2022/03/30 09:56:47;;;;;;;;;;;9.90;1.00;;;;;;5126452;27;19914;-70
2022/03/30 09:59:14;;;;;;;;;;;9.80;1.00;;;;;;5126162;27;19973;-70
2022/03/30 10:01:44;;;;;;;;;;;10.00;1.00;;;;;;5126761;27;20014;-70
2022/03/30 10:04:09;;;;;;;;;;;10.40;1.00;;;;;;5126409;27;19919;-70
2022/03/30 10:06:36;;;;;;;;;;;10.40;1.00;;;;;;5124810;27;19907;-70
2022/03/30 10:09:02;;;;;;;;;;;10.40;1.00;;;;;;5128224;27;19960;-70
2022/03/30 10:11:28;;;;;;;;;;;10.90;1.00;;;;;;5136167;27;19919;-71
2022/03/30 10:13:55;;;;;;;;;;;10.60;1.00;;;;;;5122667;27;19916;-69
2022/03/30 10:16:21;;;;;;;;;;;;;;;;;;5118037;28;19931;-73
2022/03/30 10:18:48;;;;;;;;;;;10.90;1.00;;;;;;5116187;28;19908;-69
2022/03/30 10:21:17;;;;;;;;;;;10.80;1.00;;;;;;5116380;28;20368;-69
2022/03/30 10:23:51;;;;;;;;;;;10.70;1.00;;;;;;5115837;28;20505;-70
2022/03/30 10:26:17;;;;;;;;;;;;;;;;;;5116441;28;19914;-69
2022/03/30 10:28:47;;;;;;;;;;;10.70;1.00;;;;;;5115417;28;20502;-69
2022/03/30 10:31:12;;;;;;;;;;;10.70;1.00;;;;;;5116106;28;19915;-69
2022/03/30 10:33:42;;;;;;;;;;;10.80;1.00;;;;;;5115010;28;19923;-69
2022/03/30 10:36:08;;;;;;;;;;;;;;;;;;5130993;27;19920;-70
2022/03/30 10:38:33;;;;;;;;;;;10.80;1.00;;;;;;5131619;27;19998;-69
2022/03/30 10:41:06;;;;;;;;;;;11.20;1.00;;;;;;5134270;27;19907;-70
2022/03/30 10:43:31;;;;;;;;;;;11.00;1.00;;;;;;5135697;27;19907;-70
2022/03/30 10:46:02;;;;;;;;;;;11.00;1.00;;;;;;5136471;27;19911;-70
2022/03/30 10:48:34;;;;;;;;;;;11.20;1.00;;;;;;5130208;27;19916;-70
2022/03/30 10:51:01;;;;;;;;;;;;;;;;;;5131650;27;19914;-68
2022/03/30 10:53:27;;;;;;;;;;;;;;;;;;5114811;28;19919;-71
2022/03/30 10:55:53;;;;;;;;;;;11.30;1.00;;;;;;5115578;28;19908;-68
2022/03/30 10:58:20;;;;;;;;;;;11.50;1.00;;;;;;5118499;27;19912;-71
2022/03/30 11:00:45;;;;;;;;;;;11.40;1.00;;;;;;5125174;27;19903;-72
2022/03/30 11:03:12;;;;;;;;;;;11.50;1.00;;;;;;5115668;28;20260;-71
2022/03/30 11:05:38;;;;;;;;;;;11.50;1.00;;;;;;5114209;28;19961;-72
2022/03/30 11:08:05;;;;;;;;;;;11.40;1.00;;;;;;5131919;27;19907;-72
2022/03/30 11:10:47;;;;;;;;;;;11.70;1.00;;;;;;5135124;27;19947;-73
2022/03/30 11:13:13;;;;;;;;;;;11.50;1.00;;;;;;5136095;27;19911;-72
2022/03/30 11:15:59;;;;;;;;;;;11.70;1.00;;;;;;5135133;27;19908;-71
2022/03/30 11:18:25;;;;;;;;;;;;;;;;;;5135760;27;19929;-73
2022/03/30 11:21:09;;;;;;;;;;;12.10;1.00;;;;;;5135579;27;20340;-71
2022/03/30 11:23:38;;;;;;;;;;;12.10;1.00;;;;;;5135048;27;19907;-72
2022/03/30 11:26:03;;;;;;;;;;;11.80;1.00;;;;;;5129423;27;19912;-71
2022/03/30 11:28:36;;;;;;;;;;;11.90;1.00;;;;;;5124557;27;19915;-72
2022/03/30 11:31:04;;;;;;;;;;;11.50;1.00;;;;;;5123358;27;19915;-72
2022/03/30 11:33:32;;;;;;;;;;;11.60;1.00;;;;;;5124242;27;19976;-72
2022/03/30 11:35:58;;;;;;;;;;;12.00;1.00;;;;;;5125243;27;20425;-72
2022/03/30 11:38:25;;;;;;;;;;;12.60;1.00;;;;;;5111875;27;19907;-71
2022/03/30 11:40:56;;;;;;;;;;;12.20;1.00;;;;;;5134687;27;19915;-71
2022/03/30 11:43:23;;;;;;;;;;;12.40;1.00;;;;;;5135650;27;19958;-72
2022/03/30 11:45:50;;;;;;;;;;;12.50;1.00;;;;;;5134496;27;19903;-72
2022/03/30 11:48:16;;;;;;;;;;;12.30;1.00;;;;;;5135365;27;19955;-71
2022/03/30 11:50:43;;;;;;;;;;;12.40;1.00;;;;;;5133595;27;20378;-72
2022/03/30 11:53:09;;;;;;;;;;;;;;;;;;5124482;27;19916;-70
2022/03/30 11:55:38;;;;;;;;;;;12.70;1.00;;;;;;5135030;27;19940;-75
2022/03/30 11:58:05;;;;;;;;;;;12.50;1.00;;;;;;5133548;27;19994;-71
2022/03/30 12:00:32;;;;;;;;;;;12.80;1.00;;;;;;5123724;27;19907;-75
2022/03/30 12:02:58;;;;;;;;;;;12.80;1.00;;;;;;5126032;27;19912;-70
2022/03/30 12:05:24;;;;;;;;;;;12.80;1.00;;;;;;5132243;27;19918;-75
2022/03/30 12:07:54;;;;;;;;;;;13.00;1.00;;;;;;5133602;27;19907;-71
2022/03/30 12:10:19;;;;;;;;;;;13.00;1.00;;;;;;5134708;27;19998;-71
2022/03/30 12:12:45;;;;;;;;;;;12.80;1.00;;;;;;5133836;27;20067;-72
2022/03/30 12:15:14;;;;;;;;;;;12.50;1.00;;;;;;5134858;27;19907;-70
2022/03/30 12:17:39;;;;;;;;;;;12.50;1.00;;;;;;5126697;27;19912;-72
2022/03/30 12:20:05;;;;;;;;;;;;;;;;;;5134542;27;19915;-70
2022/03/30 12:22:31;;;;;;;;;;;;;;;;;;5133245;27;19914;-71
2022/03/30 12:24:57;;;;;;;;;;;13.30;1.00;;;;;;5113645;27;19908;-70
2022/03/30 12:27:23;;;;;;;;;;;13.10;1.00;;;;;;5122553;27;19994;-71
2022/03/30 12:29:49;;;;;;;;;;;13.60;1.00;;;;;;5131464;27;19908;-76
2022/03/30 12:32:15;;;;;;;;;;;13.50;1.00;;;;;;5121147;27;19926;-69
2022/03/30 12:34:46;;;;;;;;;;;13.60;1.00;;;;;;5127130;27;19916;-68
2022/03/30 12:37:19;;;;;;;;;;;13.30;1.00;;;;;;5133116;27;20287;-70
2022/03/30 12:39:44;;;;;;;;;;;13.20;1.00;;;;;;5128464;27;19912;-69
2022/03/30 12:42:11;;;;;;;;;;;;;;;;;;5121014;27;19961;-73
2022/03/30 12:44:40;;;;;;;;;;;13.80;1.00;;;;;;5123956;27;19911;-70
2022/03/30 12:47:25;;;;;;;;;;;13.50;1.00;;;;;;5121147;27;19962;-72
2022/03/30 12:49:51;;;;;;;;;;;;;;;;;;5099406;27;20704;-75
2022/03/30 12:52:16;;;;;;;;;;;13.80;1.00;;;;;;5123404;27;20006;-69
2022/03/30 12:54:43;;;;;;;;;;;13.70;1.00;;;;;;5120597;27;19947;-69
2022/03/30 12:57:09;;;;;;;;;;;13.90;1.00;;;;;;5121448;27;19914;-68
2022/03/30 12:59:35;;;;;;;;;;;;;;;;;;5119891;27;19911;-70
2022/03/30 13:02:01;;;;;;;;;;;;;;;;;;5117098;27;19911;-71
2022/03/30 13:04:30;;;;;;;;;;;14.70;1.00;;;;;;5129416;27;19916;-69
2022/03/30 13:07:09;;;;;;;;;;;14.80;1.00;;;;;;5132777;27;19919;-70
2022/03/30 13:09:37;;;;;;;;;;;14.10;1.00;;;;;;5132684;27;19908;-70
2022/03/30 13:12:03;;;;;;;;;;;13.90;1.00;;;;;;5133571;27;19908;-70
2022/03/30 13:14:28;;;;;;;;;;;14.80;1.00;;;;;;5133593;27;19914;-69
2022/03/30 13:16:54;;;;;;;;;;;14.80;1.00;;;;;;5132502;27;20305;-69
2022/03/30 13:19:22;;;;;;;;;;;14.30;1.00;;;;;;5115005;27;19907;-69
2022/03/30 13:21:47;;;;;;;;;;;14.40;1.00;;;;;;5132614;27;19911;-69
2022/03/30 13:24:14;;;;;;;;;;;14.30;1.00;;;;;;5133359;27;19972;-69
2022/03/30 13:26:41;;;;;;;;;;;14.70;1.00;;;;;;5132603;27;20006;-70
2022/03/30 13:29:07;;;;;;;;;;;;;;;;;;5133214;27;19916;-69
2022/03/30 13:31:33;;;;;;;;;;;;;;;;;;5132758;27;20329;-73
2022/03/30 13:34:00;;;;;;;;;;;14.70;1.00;;;;;;5132870;28;19915;-69
2022/03/30 13:36:25;;;;;;;;;;;15.00;1.00;;;;;;5133301;28;19956;-69
2022/03/30 13:38:51;;;;;;;;;;;;;;;;;;5132830;28;20361;-70
2022/03/30 13:41:17;;;;;;;;;;;14.90;1.00;;;;;;5133301;28;20363;-70
2022/03/30 13:43:43;;;;;;;;;;;;;;;;;;5132625;28;19908;-70
2022/03/30 13:46:09;;;;;;;;;;;15.30;1.00;;;;;;5133200;28;19915;-70
2022/03/30 13:48:35;;;;;;;;;;;;;;;;;;5132729;28;20252;-73
2022/03/30 13:51:00;;;;;;;;;;;15.30;1.00;;;;;;5132968;28;19953;-70
2022/03/30 13:53:29;;;;;;;;;;;14.70;1.00;;;;;;5114675;28;19918;-69
2022/03/30 13:55:55;;;;;;;;;;;;;;;;;;5132330;28;19903;-70
2022/03/30 13:58:21;;;;;;;;;;;14.80;1.00;;;;;;5133001;28;19956;-69
2022/03/30 14:00:46;;;;;;;;;;;14.90;1.00;;;;;;5131972;28;19994;-70
2022/03/30 14:03:12;;;;;;;;;;;15.20;1.00;;;;;;5132928;28;19911;-69
2022/03/30 14:05:38;;;;;;;;;;;;;;;;;;5132204;28;20484;-74
2022/03/30 14:08:03;;;;;;;;;;;15.20;1.00;;;;;;5133073;28;19943;-70
2022/03/30 14:10:30;;;;;;;;;;;15.40;1.00;;;;;;5133258;28;20442;-70
2022/03/30 14:12:56;;;;;;;;;;;15.80;1.00;;;;;;5132103;28;20335;-70
2022/03/30 14:15:21;;;;;;;;;;;15.70;1.00;;;;;;5132944;28;19915;-70
2022/03/30 14:17:48;;;;;;;;;;;15.70;1.00;;;;;;5132412;28;19911;-70
2022/03/30 14:20:13;;;;;;;;;;;15.90;1.00;;;;;;5132996;28;19994;-70
2022/03/30 14:22:39;;;;;;;;;;;15.50;1.00;;;;;;5132135;28;19966;-71
2022/03/30 14:25:05;;;;;;;;;;;15.60;1.00;;;;;;5132849;28;20006;-69
2022/03/30 14:27:31;;;;;;;;;;;14.90;1.00;;;;;;5132947;28;19915;-69
2022/03/30 14:30:00;;;;;;;;;;;14.90;1.00;;;;;;5132058;28;19903;-70
2022/03/30 14:32:25;;;;;;;;;;;;;;;;;;5132544;28;19926;-70
2022/03/30 14:34:52;;;;;;;;;;;14.80;1.00;;;;;;5132016;28;19913;-70
2022/03/30 14:37:18;;;;;;;;;;;14.60;1.00;;;;;;5132597;28;19911;-69
2022/03/30 14:39:44;;;;;;;;;;;14.70;1.00;;;;;;5132517;27;19915;-70
2022/03/30 14:42:10;;;;;;;;;;;14.50;1.00;;;;;;5136573;27;19930;-69
2022/03/30 14:44:36;;;;;;;;;;;;;;;;;;5136364;27;19931;-73
2022/03/30 14:47:01;;;;;;;;;;;14.10;1.00;;;;;;5136032;27;20374;-69
2022/03/30 14:49:27;;;;;;;;;;;;;;;;;;5136343;27;19962;-69
2022/03/30 14:51:53;;;;;;;;;;;;;;;;;;5135785;27;19907;-69
2022/03/30 14:54:19;;;;;;;;;;;14.50;1.00;;;;;;5136067;27;19918;-69
2022/03/30 14:56:44;;;;;;;;;;;14.40;1.00;;;;;;5135380;27;20036;-69
2022/03/30 14:59:11;;;;;;;;;;;14.50;1.00;;;;;;5136063;27;19908;-69
2022/03/30 15:01:37;;;;;;;;;;;;;;;;;;5136090;27;19908;-74
2022/03/30 15:04:02;;;;;;;;;;;14.00;1.00;;;;;;5135406;27;19912;-69
2022/03/30 15:06:28;;;;;;;;;;;14.00;1.00;;;;;;5135925;27;20320;-69
2022/03/30 15:08:54;;;;;;;;;;;;;;;;;;5135114;27;19964;-70
2022/03/30 15:11:20;;;;;;;;;;;;;;;;;;5136081;27;19908;-69
2022/03/30 15:13:46;;;;;;;;;;;13.80;1.00;;;;;;5134974;27;19919;-70
2022/03/30 15:16:12;;;;;;;;;;;;;;;;;;5135813;27;19908;-69
2022/03/30 15:18:38;;;;;;;;;;;;;;;;;;5135631;27;20014;-73
2022/03/30 15:21:04;;;;;;;;;;;13.70;1.00;;;;;;5117310;27;19990;-69
2022/03/30 15:23:30;;;;;;;;;;;14.20;1.00;;;;;;5135588;27;19915;-69
2022/03/30 15:25:55;;;;;;;;;;;14.00;1.00;;;;;;5134831;27;19911;-69
2022/03/30 15:28:21;;;;;;;;;;;13.80;1.00;;;;;;5137361;27;20326;-69
2022/03/30 15:30:46;;;;;;;;;;;13.60;1.00;;;;;;5135910;27;19907;-69
2022/03/30 15:33:13;;;;;;;;;;;;;;;;;;5135174;27;20014;-69
2022/03/30 15:35:39;;;;;;;;;;;;;;;;;;5135624;27;19915;-71
2022/03/30 15:38:07;;;;;;;;;;;;;;;;;;5134874;27;19930;-69
2022/03/30 15:40:32;;;;;;;;;;;13.70;1.00;;;;;;5135371;27;19950;-69
2022/03/30 15:43:01;;;;;;;;;;;13.70;1.00;;;;;;5134523;27;19961;-69
2022/03/30 15:45:26;;;;;;;;;;;13.60;1.00;;;;;;5135247;27;19915;-70
2022/03/30 15:47:52;;;;;;;;;;;13.60;1.00;;;;;;5134429;27;19907;-69
2022/03/30 15:50:19;;;;;;;;;;;13.60;1.00;;;;;;5135142;27;19915;-69
2022/03/30 15:52:44;;;;;;;;;;;13.50;1.00;;;;;;5134395;27;19916;-70
2022/03/30 15:55:12;;;;;;;;;;;13.40;1.00;;;;;;5135034;27;20052;-69
2022/03/30 15:57:37;;;;;;;;;;;13.60;1.00;;;;;;5134965;27;19915;-69
2022/03/30 16:00:04;;;;;;;;;;;13.50;1.00;;;;;;5134176;27;20328;-68
2022/03/30 16:02:30;;;;;;;;;;;13.40;1.00;;;;;;5134991;27;19912;-69
2022/03/30 16:04:55;;;;;;;;;;;13.20;1.00;;;;;;5134118;27;19912;-69
2022/03/30 16:07:21;;;;;;;;;;;13.40;1.00;;;;;;5131120;27;20264;-70
2022/03/30 16:09:47;;;;;;;;;;;13.20;1.00;;;;;;5113051;27;19965;-70
2022/03/30 16:12:16;;;;;;;;;;;13.60;1.00;;;;;;5118652;27;19912;-69
2022/03/30 16:14:44;;;;;;;;;;;;;;;;;;5121936;27;19912;-74
2022/03/30 16:17:10;;;;;;;;;;;13.60;1.00;;;;;;5113881;27;19912;-69
2022/03/30 16:19:37;;;;;;;;;;;13.60;1.00;;;;;;5114047;28;19908;-69
2022/03/30 16:22:03;;;;;;;;;;;13.40;1.00;;;;;;5113188;28;19947;-70
2022/03/30 16:24:29;;;;;;;;;;;13.20;1.00;;;;;;5118078;27;19954;-69
2022/03/30 16:26:58;;;;;;;;;;;13.30;1.00;;;;;;5099354;27;19962;-70
2022/03/30 16:29:25;;;;;;;;;;;13.30;1.00;;;;;;5122055;27;19911;-70
2022/03/30 16:31:51;;;;;;;;;;;13.10;1.00;;;;;;5120762;27;19915;-69
2022/03/30 16:34:17;;;;;;;;;;;13.10;1.00;;;;;;5122808;27;19916;-69